createdAt,value
2019-02-12T00:00:52.500Z,25.24
2019-02-12T00:03:22.045Z,25.24
2019-02-12T00:05:51.495Z,25.23
2019-02-12T00:08:21.037Z,25.21
2019-02-12T00:10:50.563Z,25.21
2019-02-12T00:13:20.022Z,25.17
2019-02-12T00:15:49.494Z,25.15
2019-02-12T00:18:19.090Z,25.15
2019-02-12T00:20:48.662Z,25.13
2019-02-12T00:23:18.210Z,25.15
2019-02-12T00:25:47.721Z,25.17
2019-02-12T00:28:17.197Z,25.17
2019-02-12T00:30:46.655Z,25.15
2019-02-12T00:33:16.146Z,25.18
2019-02-12T00:35:45.671Z,25.24
2019-02-12T00:38:15.135Z,25.24
2019-02-12T00:40:44.747Z,25.25
2019-02-12T00:43:14.210Z,25.28
2019-02-12T00:45:43.729Z,25.28
2019-02-12T00:48:13.216Z,25.27
2019-02-12T00:50:42.723Z,25.28
2019-02-12T00:53:12.181Z,25.28
2019-02-12T00:55:41.723Z,25.23
2019-02-12T00:58:11.185Z,25.13
2019-02-12T01:00:40.637Z,25.11
2019-02-12T01:03:11.399Z,25.06
2019-02-12T01:05:40.857Z,25.07
2019-02-12T01:08:10.295Z,25.11
2019-02-12T01:10:39.749Z,25.08
2019-02-12T01:13:09.366Z,25.08
2019-02-12T01:15:38.890Z,25.08
2019-02-12T01:18:08.355Z,25.05
2019-02-12T01:20:37.852Z,25.03
2019-02-12T01:23:07.369Z,25.01
2019-02-12T01:25:36.963Z,25.00
2019-02-12T01:28:06.466Z,24.95
2019-02-12T01:30:35.932Z,24.93
2019-02-12T01:33:05.478Z,24.92
2019-02-12T01:35:35.033Z,24.94
2019-02-12T01:38:06.026Z,24.90
2019-02-12T01:40:35.464Z,24.87
2019-02-12T01:43:04.953Z,24.90
2019-02-12T01:45:34.410Z,24.87
2019-02-12T01:48:03.904Z,24.88
2019-02-12T01:50:33.404Z,24.86
2019-02-12T01:53:02.847Z,24.82
2019-02-12T01:55:32.433Z,24.85
2019-02-12T01:58:01.880Z,24.87
2019-02-12T02:00:33.834Z,24.85
2019-02-12T02:03:03.371Z,24.84
2019-02-12T02:05:32.860Z,24.81
2019-02-12T02:08:02.395Z,24.78
2019-02-12T02:10:31.881Z,24.78
2019-02-12T02:13:01.375Z,24.77
2019-02-12T02:15:30.802Z,24.74
2019-02-12T02:18:00.305Z,24.70
2019-02-12T02:20:29.755Z,24.72
2019-02-12T02:22:59.287Z,24.69
2019-02-12T02:25:28.806Z,24.65
2019-02-12T02:27:58.754Z,24.67
2019-02-12T02:30:28.246Z,24.69
2019-02-12T02:32:57.742Z,24.68
2019-02-12T02:35:27.244Z,24.67
2019-02-12T02:37:56.727Z,24.67
2019-02-12T02:40:27.551Z,24.64
2019-02-12T02:42:57.021Z,24.65
2019-02-12T02:45:26.522Z,24.67
2019-02-12T02:47:56.039Z,24.68
2019-02-12T02:50:25.511Z,24.68
2019-02-12T02:52:54.965Z,24.71
2019-02-12T02:55:25.926Z,24.72
2019-02-12T02:57:55.425Z,24.73
2019-02-12T03:00:26.931Z,24.74
2019-02-12T03:02:56.515Z,24.74
2019-02-12T03:05:25.964Z,24.77
2019-02-12T03:07:55.473Z,24.79
2019-02-12T03:10:24.959Z,24.79
2019-02-12T03:12:54.483Z,24.78
2019-02-12T03:15:23.912Z,24.76
2019-02-12T03:17:53.383Z,24.69
2019-02-12T03:20:24.184Z,24.70
2019-02-12T03:22:57.770Z,24.66
2019-02-12T03:25:27.310Z,24.69
2019-02-12T03:27:56.799Z,24.68
2019-02-12T03:30:26.249Z,24.66
2019-02-12T03:32:55.870Z,24.67
2019-02-12T03:35:25.319Z,24.66
2019-02-12T03:37:54.838Z,24.63
2019-02-12T03:40:24.743Z,24.64
2019-02-12T03:42:54.236Z,24.58
2019-02-12T03:45:23.813Z,24.54
2019-02-12T03:47:53.285Z,24.55
2019-02-12T03:50:23.122Z,24.52
2019-02-12T03:52:52.677Z,24.51
2019-02-12T03:55:22.318Z,24.51
2019-02-12T03:57:52.257Z,24.50
2019-02-12T04:00:22.019Z,24.48
2019-02-12T04:03:02.775Z,24.43
2019-02-12T04:05:32.309Z,24.47
2019-02-12T04:08:02.214Z,24.47
2019-02-12T04:10:31.801Z,24.44
2019-02-12T04:13:01.285Z,24.42
2019-02-12T04:15:30.889Z,24.42
2019-02-12T04:18:00.485Z,24.42
2019-02-12T04:20:29.995Z,24.41
2019-02-12T04:22:59.439Z,24.39
2019-02-12T04:25:29.085Z,24.57
2019-02-12T04:27:58.530Z,24.58
2019-02-12T04:30:28.060Z,24.54
2019-02-12T04:32:57.569Z,24.49
2019-02-12T04:35:27.143Z,24.49
2019-02-12T04:37:56.618Z,24.45
2019-02-12T04:40:26.239Z,24.43
2019-02-12T04:42:58.767Z,24.42
2019-02-12T04:45:28.354Z,24.37
2019-02-12T04:47:59.786Z,24.37
2019-02-12T04:50:29.302Z,24.37
2019-02-12T04:52:58.821Z,24.38
2019-02-12T04:55:28.452Z,24.35
2019-02-12T04:57:58.177Z,24.36
2019-02-12T05:00:27.681Z,24.35
2019-02-12T05:02:57.261Z,24.36
2019-02-12T05:05:26.714Z,24.37
2019-02-12T05:07:56.394Z,24.38
2019-02-12T05:10:26.922Z,24.41
2019-02-12T05:12:56.440Z,24.38
2019-02-12T05:15:25.888Z,24.41
2019-02-12T05:17:55.328Z,24.41
2019-02-12T05:20:24.828Z,24.43
2019-02-12T05:22:54.328Z,24.43
2019-02-12T05:25:23.868Z,24.44
2019-02-12T05:27:53.346Z,24.46
2019-02-12T05:30:22.864Z,24.44
2019-02-12T05:32:52.336Z,24.40
2019-02-12T05:35:21.865Z,24.40
2019-02-12T05:37:51.287Z,24.40
2019-02-12T05:40:20.778Z,24.38
2019-02-12T05:42:50.215Z,24.36
2019-02-12T05:45:19.776Z,24.36
2019-02-12T05:47:49.320Z,24.38
2019-02-12T05:50:18.898Z,24.38
2019-02-12T05:52:54.371Z,24.39
2019-02-12T05:55:19.605Z,24.96
2019-02-12T05:57:49.143Z,25.23
2019-02-12T06:00:19.664Z,25.15
2019-02-12T06:02:49.156Z,25.00
2019-02-12T06:05:27.946Z,24.95
2019-02-12T06:07:57.508Z,24.90
2019-02-12T06:10:27.466Z,24.80
2019-02-12T06:12:57.129Z,24.74
2019-02-12T06:15:26.766Z,24.71
2019-02-12T06:17:56.967Z,24.69
2019-02-12T06:20:26.503Z,24.64
2019-02-12T06:23:03.489Z,24.65
2019-02-12T06:25:27.793Z,24.62
2019-02-12T06:27:57.249Z,24.58
2019-02-12T06:30:26.981Z,24.57
2019-02-12T06:32:56.419Z,24.56
2019-02-12T06:35:27.353Z,24.53
2019-02-12T06:37:56.979Z,24.48
2019-02-12T06:40:29.468Z,24.45
2019-02-12T06:42:59.067Z,24.44
2019-02-12T06:45:28.693Z,24.39
2019-02-12T06:47:58.289Z,24.37
2019-02-12T06:50:27.765Z,24.37
2019-02-12T06:52:57.207Z,24.32
2019-02-12T06:55:26.809Z,24.35
2019-02-12T06:57:59.894Z,24.31
2019-02-12T07:00:29.423Z,24.17
2019-02-12T07:03:30.575Z,24.18
2019-02-12T07:06:13.621Z,24.20
2019-02-12T07:09:10.248Z,24.21
2019-02-12T07:12:29.367Z,24.20
2019-02-12T07:15:16.520Z,24.16
2019-02-12T07:18:15.275Z,24.20
2019-02-12T07:21:14.483Z,24.20
2019-02-12T07:24:36.652Z,24.21
2019-02-12T07:27:45.070Z,24.22
2019-02-12T07:30:40.422Z,24.21
2019-02-12T07:33:33.200Z,24.26
2019-02-12T07:36:35.518Z,24.29
2019-02-12T07:39:28.192Z,24.30
2019-02-12T07:42:59.634Z,24.33
2019-02-12T07:45:50.191Z,24.35
2019-02-12T07:48:51.677Z,24.37
2019-02-12T07:52:07.729Z,24.36
2019-02-12T07:55:28.860Z,24.81
2019-02-12T07:58:27.866Z,25.03
2019-02-12T08:01:21.299Z,25.42
2019-02-12T08:04:28.520Z,25.66
2019-02-12T08:07:45.033Z,25.76
2019-02-12T08:10:39.450Z,26.07
2019-02-12T08:14:05.107Z,26.89
2019-02-12T08:17:05.899Z,27.54
2019-02-12T08:20:20.998Z,27.86
2019-02-12T08:23:30.320Z,28.34
2019-02-12T08:26:40.769Z,28.41
2019-02-12T08:29:45.250Z,28.37
2019-02-12T08:32:58.428Z,28.28
2019-02-12T08:36:02.725Z,28.23
2019-02-12T08:39:12.441Z,28.10
2019-02-12T08:42:17.288Z,28.06
2019-02-12T08:44:59.683Z,27.93
2019-02-12T08:47:59.186Z,27.85
2019-02-12T08:51:08.093Z,27.76
2019-02-12T08:54:10.983Z,27.65
2019-02-12T08:57:13.424Z,27.56
2019-02-12T09:00:33.778Z,27.45
2019-02-12T09:03:44.832Z,27.37
2019-02-12T09:06:44.389Z,27.30
2019-02-12T09:09:53.398Z,27.18
2019-02-12T09:13:08.421Z,27.09
2019-02-12T09:16:14.696Z,27.03
2019-02-12T09:19:09.966Z,26.90
2019-02-12T09:22:19.793Z,26.84
2019-02-12T09:25:32.475Z,26.77
2019-02-12T09:28:38.641Z,26.67
2019-02-12T09:32:03.076Z,26.61
2019-02-12T09:35:01.070Z,26.51
2019-02-12T09:38:22.574Z,26.43
2019-02-12T09:41:48.063Z,26.37
2019-02-12T09:44:41.603Z,26.33
2019-02-12T09:47:43.268Z,26.27
2019-02-12T09:50:58.683Z,26.19
2019-02-12T09:54:11.091Z,26.12
2019-02-12T09:57:09.119Z,26.06
2019-02-12T10:00:14.665Z,26.01
2019-02-12T10:02:55.802Z,25.92
2019-02-12T10:06:21.451Z,25.87
2019-02-12T10:09:21.868Z,25.82
2019-02-12T10:12:03.528Z,25.74
2019-02-12T10:14:54.925Z,25.69
2019-02-12T10:17:46.478Z,25.63
2019-02-12T10:20:27.047Z,25.59
2019-02-12T10:23:46.192Z,25.54
2019-02-12T10:26:17.777Z,25.48
2019-02-12T10:29:34.357Z,25.42
2019-02-12T10:32:08.394Z,25.37
2019-02-12T10:34:33.276Z,25.31
2019-02-12T10:37:03.045Z,25.25
2019-02-12T10:39:32.591Z,25.18
2019-02-12T10:42:02.010Z,25.14
2019-02-12T10:44:31.598Z,25.06
2019-02-12T10:47:01.052Z,25.01
2019-02-12T10:49:30.619Z,24.95
2019-02-12T10:52:00.161Z,24.91
2019-02-12T10:54:30.142Z,24.86
2019-02-12T10:56:59.643Z,24.83
2019-02-12T10:59:29.267Z,24.78
2019-02-12T11:01:58.805Z,24.75
2019-02-12T11:04:28.285Z,24.72
2019-02-12T11:06:57.775Z,24.69
2019-02-12T11:09:27.240Z,24.67
2019-02-12T11:11:56.821Z,24.65
2019-02-12T11:14:27.749Z,24.61
2019-02-12T11:16:57.227Z,24.58
2019-02-12T11:19:26.788Z,24.55
2019-02-12T11:21:56.292Z,24.52
2019-02-12T11:24:25.944Z,24.53
2019-02-12T11:26:55.522Z,24.51
2019-02-12T11:29:25.091Z,24.46
2019-02-12T11:31:54.594Z,24.44
2019-02-12T11:34:24.220Z,24.42
2019-02-12T11:36:53.721Z,24.40
2019-02-12T11:39:23.178Z,24.37
2019-02-12T11:41:52.722Z,24.33
2019-02-12T11:44:22.685Z,24.32
2019-02-12T11:46:52.142Z,24.31
2019-02-12T11:49:21.747Z,24.29
2019-02-12T11:51:51.406Z,24.25
2019-02-12T11:54:20.875Z,24.20
2019-02-12T11:56:51.503Z,24.19
2019-02-12T11:59:21.511Z,24.17
2019-02-12T12:01:52.095Z,24.15
2019-02-12T12:04:21.734Z,24.17
2019-02-12T12:06:51.206Z,24.12
2019-02-12T12:09:20.833Z,24.07
2019-02-12T12:11:50.334Z,24.05
2019-02-12T12:14:19.819Z,24.02
2019-02-12T12:16:49.276Z,24.01
2019-02-12T12:19:18.747Z,24.01
2019-02-12T12:21:48.249Z,23.96
2019-02-12T12:24:18.539Z,23.95
2019-02-12T12:26:48.101Z,23.88
2019-02-12T12:29:18.515Z,23.85
2019-02-12T12:31:48.014Z,23.84
2019-02-12T12:34:17.460Z,23.83
2019-02-12T12:36:46.973Z,23.80
2019-02-12T12:39:16.474Z,23.79
2019-02-12T12:41:45.921Z,23.78
2019-02-12T12:44:15.378Z,23.77
2019-02-12T12:46:44.836Z,23.73
2019-02-12T12:49:14.328Z,23.70
2019-02-12T12:51:43.928Z,23.69
2019-02-12T12:54:13.393Z,23.69
2019-02-12T12:56:42.864Z,23.66
2019-02-12T12:59:12.425Z,23.64
2019-02-12T13:01:41.861Z,23.63
2019-02-12T13:04:11.342Z,23.62
2019-02-12T13:06:40.875Z,23.59
2019-02-12T13:09:10.382Z,23.57
2019-02-12T13:11:39.964Z,23.55
2019-02-12T13:14:09.484Z,23.53
2019-02-12T13:16:38.984Z,23.52
2019-02-12T13:19:08.564Z,23.51
2019-02-12T13:21:38.186Z,23.49
2019-02-12T13:24:07.892Z,23.46
2019-02-12T13:26:37.436Z,23.42
2019-02-12T13:29:06.954Z,23.42
2019-02-12T13:31:36.506Z,23.41
2019-02-12T13:34:05.976Z,23.40
2019-02-12T13:36:35.555Z,23.37
2019-02-12T13:39:06.334Z,23.36
2019-02-12T13:41:36.802Z,23.33
2019-02-12T13:44:06.430Z,23.33
2019-02-12T13:46:38.594Z,23.33
2019-02-12T13:49:08.156Z,23.31
2019-02-12T13:51:37.681Z,23.30
2019-02-12T13:54:07.225Z,23.30
2019-02-12T13:56:37.244Z,23.32
2019-02-12T13:59:09.238Z,23.30
2019-02-12T14:01:38.757Z,23.27
2019-02-12T14:04:08.315Z,23.26
2019-02-12T14:06:37.835Z,23.23
2019-02-12T14:09:07.640Z,23.34
2019-02-12T14:11:39.460Z,23.67
2019-02-12T14:14:08.939Z,23.77
2019-02-12T14:16:38.425Z,23.81
2019-02-12T14:19:07.942Z,23.92
2019-02-12T14:21:37.492Z,24.11
2019-02-12T14:24:07.034Z,24.22
2019-02-12T14:26:37.459Z,24.18
2019-02-12T14:29:07.220Z,24.30
2019-02-12T14:31:36.803Z,24.38
2019-02-12T14:34:07.354Z,24.54
2019-02-12T14:36:36.856Z,24.56
2019-02-12T14:39:07.067Z,24.60
2019-02-12T14:41:47.543Z,24.64
2019-02-12T14:44:17.080Z,24.70
2019-02-12T14:46:46.655Z,24.71
2019-02-12T14:49:16.201Z,24.70
2019-02-12T14:51:45.785Z,24.66
2019-02-12T14:54:15.275Z,24.61
2019-02-12T14:56:44.904Z,24.58
2019-02-12T14:59:14.398Z,24.54
2019-02-12T15:01:43.896Z,24.48
2019-02-12T15:04:13.480Z,24.47
2019-02-12T15:06:42.984Z,24.42
2019-02-12T15:09:12.463Z,24.38
2019-02-12T15:11:42.080Z,24.32
2019-02-12T15:14:11.566Z,24.28
2019-02-12T15:16:41.163Z,24.24
2019-02-12T15:19:11.223Z,24.20
2019-02-12T15:21:40.711Z,24.15
2019-02-12T15:24:10.298Z,24.11
2019-02-12T15:26:39.762Z,24.10
2019-02-12T15:29:09.313Z,24.06
2019-02-12T15:31:39.754Z,24.04
2019-02-12T15:34:09.301Z,24.00
2019-02-12T15:36:38.859Z,23.98
2019-02-12T15:39:08.458Z,23.95
2019-02-12T15:41:38.068Z,23.90
2019-02-12T15:46:35.995Z,23.88
2019-02-12T15:49:05.591Z,23.88
2019-02-12T15:51:35.147Z,23.85
2019-02-12T15:54:04.740Z,23.84
2019-02-12T15:56:34.568Z,23.83
2019-02-12T15:59:04.236Z,23.80
2019-02-12T16:01:33.750Z,23.78
2019-02-12T16:04:03.296Z,23.76
2019-02-12T16:06:33.029Z,23.75
2019-02-12T16:09:02.708Z,23.74
2019-02-12T16:11:32.232Z,23.74
2019-02-12T16:14:01.957Z,23.70
2019-02-12T16:16:32.119Z,23.67
2019-02-12T16:19:03.534Z,23.67
2019-02-12T16:21:33.072Z,23.64
2019-02-12T16:24:02.981Z,23.64
2019-02-12T16:26:32.857Z,23.61
2019-02-12T16:29:02.614Z,23.61
2019-02-12T16:31:32.483Z,23.56
2019-02-12T16:34:02.134Z,23.54
2019-02-12T16:36:31.732Z,23.52
2019-02-12T16:39:01.529Z,23.50
2019-02-12T16:41:31.326Z,23.47
2019-02-12T16:44:00.973Z,23.46
2019-02-12T16:46:30.485Z,23.43
2019-02-12T16:49:00.004Z,23.43
2019-02-12T16:51:29.826Z,23.39
2019-02-12T16:53:59.327Z,23.59
2019-02-12T16:56:29.934Z,23.85
2019-02-12T16:59:03.563Z,24.28
2019-02-12T17:01:30.885Z,24.81
2019-02-12T17:04:00.538Z,25.18
2019-02-12T17:06:30.050Z,25.09
2019-02-12T17:09:04.702Z,25.16
2019-02-12T17:11:34.231Z,25.31
2019-02-12T17:14:03.762Z,25.60
2019-02-12T17:16:33.325Z,25.66
2019-02-12T17:19:02.996Z,25.80
2019-02-12T17:21:33.024Z,25.92
2019-02-12T17:24:02.611Z,25.94
2019-02-12T17:26:32.160Z,26.09
2019-02-12T17:29:03.203Z,26.16
2019-02-12T17:31:32.868Z,25.99
2019-02-12T17:34:02.481Z,25.89
2019-02-12T17:36:32.224Z,25.86
2019-02-12T17:39:03.232Z,25.83
2019-02-12T17:41:32.793Z,25.91
2019-02-12T17:44:02.350Z,25.90
2019-02-12T17:46:32.013Z,25.85
2019-02-12T17:49:01.917Z,25.69
2019-02-12T17:51:31.921Z,25.59
2019-02-12T17:54:01.439Z,25.48
2019-02-12T17:56:31.202Z,25.45
2019-02-12T17:59:00.704Z,25.42
2019-02-12T18:01:30.362Z,25.38
2019-02-12T18:03:59.918Z,25.32
2019-02-12T18:06:29.435Z,25.28
2019-02-12T18:08:59.085Z,25.27
2019-02-12T18:11:28.650Z,25.25
2019-02-12T18:13:58.517Z,25.33
2019-02-12T18:16:28.011Z,25.31
2019-02-12T18:18:57.548Z,25.24
2019-02-12T18:21:27.161Z,25.15
2019-02-12T18:23:56.660Z,25.17
2019-02-12T18:26:33.134Z,25.14
2019-02-12T18:28:57.622Z,25.17
2019-02-12T18:31:27.128Z,25.07
2019-02-12T18:33:56.689Z,25.07
2019-02-12T18:36:26.534Z,25.03
2019-02-12T18:38:56.010Z,25.08
2019-02-12T18:41:25.610Z,25.03
2019-02-12T18:43:55.255Z,25.03
2019-02-12T18:46:24.774Z,25.03
2019-02-12T18:48:54.390Z,25.04
2019-02-12T18:51:23.914Z,25.00
2019-02-12T18:53:53.745Z,25.07
2019-02-12T18:56:23.701Z,24.97
2019-02-12T18:58:53.231Z,24.88
2019-02-12T19:01:23.885Z,24.60
2019-02-12T19:03:54.731Z,24.59
2019-02-12T19:06:24.254Z,24.64
2019-02-12T19:08:53.776Z,24.77
2019-02-12T19:11:24.476Z,24.81
2019-02-12T19:13:54.080Z,24.85
2019-02-12T19:16:23.628Z,24.96
2019-02-12T19:18:54.191Z,24.90
2019-02-12T19:21:23.936Z,24.91
2019-02-12T19:23:55.038Z,24.88
2019-02-12T19:26:24.596Z,24.86
2019-02-12T19:28:54.114Z,24.81
2019-02-12T19:31:24.157Z,24.81
2019-02-12T19:33:54.738Z,24.78
2019-02-12T19:36:24.278Z,24.79
2019-02-12T19:38:53.860Z,24.77
2019-02-12T19:41:25.079Z,24.74
2019-02-12T19:43:54.782Z,24.68
2019-02-12T19:46:26.987Z,24.66
2019-02-12T19:48:56.798Z,24.66
2019-02-12T19:51:26.721Z,24.74
2019-02-12T19:53:56.525Z,24.97
2019-02-12T19:56:26.224Z,25.16
2019-02-12T19:58:55.896Z,25.33
2019-02-12T20:01:26.157Z,25.58
2019-02-12T20:03:55.941Z,26.13
2019-02-12T20:06:26.837Z,27.01
2019-02-12T20:08:56.772Z,28.27
2019-02-12T20:11:26.529Z,28.52
2019-02-12T20:13:56.331Z,28.78
2019-02-12T20:16:29.441Z,29.36
2019-02-12T20:19:00.235Z,29.70
2019-02-12T20:21:33.384Z,30.05
2019-02-12T20:24:06.112Z,30.62
2019-02-12T20:26:36.318Z,31.43
2019-02-12T20:29:06.668Z,31.74
2019-02-12T20:31:36.350Z,32.04
2019-02-12T20:34:08.342Z,32.39
2019-02-12T20:36:38.697Z,32.90
2019-02-12T20:39:09.059Z,33.53
2019-02-12T20:41:39.295Z,33.83
2019-02-12T20:44:08.916Z,33.58
2019-02-12T20:46:38.545Z,33.34
2019-02-12T20:49:08.483Z,33.20
2019-02-12T20:51:40.265Z,33.01
2019-02-12T20:54:09.847Z,32.94
2019-02-12T20:56:39.718Z,32.77
2019-02-12T20:59:10.129Z,32.62
2019-02-12T21:01:41.164Z,32.47
2019-02-12T21:04:17.295Z,32.39
2019-02-12T21:06:47.043Z,32.22
2019-02-12T21:09:18.987Z,32.09
2019-02-12T21:11:48.908Z,32.07
2019-02-12T21:14:18.578Z,32.12
2019-02-12T21:16:48.151Z,32.22
2019-02-12T21:19:18.571Z,32.34
2019-02-12T21:21:50.325Z,32.28
2019-02-12T21:24:20.165Z,32.37
2019-02-12T21:26:50.951Z,32.33
2019-02-12T21:29:20.747Z,32.30
2019-02-12T21:31:51.187Z,32.22
2019-02-12T21:34:21.214Z,32.32
2019-02-12T21:36:51.076Z,32.30
2019-02-12T21:39:24.659Z,32.11
2019-02-12T21:41:54.535Z,31.95
2019-02-12T21:44:24.528Z,31.90
2019-02-12T21:46:54.013Z,31.86
2019-02-12T21:49:24.035Z,31.94
2019-02-12T21:51:54.130Z,31.78
2019-02-12T21:54:23.699Z,31.77
2019-02-12T21:56:53.546Z,31.90
2019-02-12T21:59:23.046Z,31.91
2019-02-12T22:01:52.630Z,31.85
2019-02-12T22:04:23.753Z,31.79
2019-02-12T22:06:53.245Z,31.75
2019-02-12T22:09:22.817Z,31.63
2019-02-12T22:11:52.647Z,31.56
2019-02-12T22:14:23.058Z,31.51
2019-02-12T22:16:52.552Z,31.49
2019-02-12T22:19:22.098Z,31.26
2019-02-12T22:21:51.399Z,30.98
2019-02-12T22:24:21.861Z,30.78
2019-02-12T22:26:51.735Z,30.51
2019-02-12T22:29:21.507Z,30.38
2019-02-12T22:31:52.429Z,30.25
2019-02-12T22:34:22.983Z,30.09
2019-02-12T22:36:52.580Z,29.94
2019-02-12T22:39:22.266Z,29.79
2019-02-12T22:41:53.874Z,29.66
2019-02-12T22:44:23.434Z,29.55
2019-02-12T22:46:52.909Z,29.44
2019-02-12T22:49:23.012Z,29.37
2019-02-12T22:51:52.503Z,29.27
2019-02-12T22:54:22.052Z,29.15
2019-02-12T22:56:52.010Z,29.05
2019-02-12T22:59:21.573Z,29.19
2019-02-12T23:01:51.103Z,29.27
2019-02-12T23:04:20.635Z,29.13
2019-02-12T23:06:51.173Z,29.01
2019-02-12T23:09:20.691Z,28.92
2019-02-12T23:11:50.295Z,28.72
2019-02-12T23:14:19.795Z,28.65
2019-02-12T23:16:49.285Z,28.54
2019-02-12T23:19:18.849Z,28.51
2019-02-12T23:21:48.422Z,28.40
2019-02-12T23:24:17.904Z,28.34
2019-02-12T23:26:47.521Z,28.28
2019-02-12T23:29:17.022Z,28.13
2019-02-12T23:31:46.528Z,28.08
2019-02-12T23:34:16.109Z,28.01
2019-02-12T23:36:45.632Z,27.95
2019-02-12T23:39:15.253Z,27.84
2019-02-12T23:41:44.829Z,27.70
2019-02-12T23:44:14.356Z,28.04
2019-02-12T23:46:44.013Z,28.06
2019-02-12T23:49:13.537Z,27.89
2019-02-12T23:51:43.003Z,27.74
2019-02-12T23:54:12.655Z,27.71
2019-02-12T23:56:43.608Z,27.68
2019-02-12T23:59:15.194Z,27.56
